Terminal Aerodrome Forecast
Issued by NWS

Home | Current Version | Previous Version | Text Only | Print | Product List | Glossary On
Versions: 1 2 3 4 5 6 7 8 9 10 11 12 13 14 15 16
000
FTAK31 PAJN 250529
TAFAJN
TAF
PAJN 250529Z 2506/2606 11010KT P6SM -SHRA BKN040 OVC080
      TEMPO 2506/2510 5SM -SHRA BR BKN025 OVC040
     FM251500 11012G20KT 6SM -RA BR BKN030 OVC040=

USA.gov is the U.S. government's official web portal to all federal, state and local government web resources and services.